Friday, July 20, 2018, 11:42 AM CDT
Back to Local

KFOE, Forbes Field

Location: Topeka, KS, United States Lat: 38.933
Local Time: 11:42 AM CDT (16:42 GMT) Lon: -95.65
Time Zone: US/Central Elev: 1079 ft

Show me the last for .
Show Decoded

2018-07-20 10:53 METAR KFOE 201553Z 04006KT 10SM CLR 32/18 A2990 RMK AO2 SLP111 T03170178 =
2018-07-20 09:53 METAR KFOE 201453Z 03006KT 10SM CLR 29/20 A2990 RMK AO2 SLP112 T02940200 50000 =
2018-07-20 08:53 METAR KFOE 201353Z 05004KT 10SM CLR 27/20 A2990 RMK AO2 SLP115 T02720200 =
2018-07-20 07:53 METAR KFOE 201253Z 03008KT 9SM CLR 24/21 A2990 RMK AO2 SLP112 T02390211 =
2018-07-20 06:53 METAR KFOE 201153Z 04003KT 10SM CLR 22/21 A2990 RMK AO2 SLP112 70027 T02220206
                 10222 20200 53010 $ =
2018-07-20 05:53 METAR KFOE 201053Z 00000KT 8SM CLR 21/20 A2987 RMK AO2 SLP106 T02060200 $ =
2018-07-20 04:53 METAR KFOE 200953Z AUTO 35004KT 9SM CLR 21/20 A2986 RMK AO2 SLP102 T02060200 $ =
2018-07-20 03:53 METAR KFOE 200853Z AUTO 00000KT 10SM 22/21 A2986 RMK AO2 SLP103 T02220206 51002
                 $ =
2018-07-20 02:53 METAR KFOE 200753Z AUTO 00000KT 9SM CLR 21/21 A2986 RMK AO2 SLP098 T02110206 $ =
2018-07-20 01:53 METAR KFOE 200653Z AUTO 19004KT 10SM CLR 22/21 A2987 RMK AO2 SLP100 T02170206 $
                 =
2018-07-20 00:53 METAR KFOE 200553Z AUTO 20003KT 10SM 21/21 A2986 RMK AO2 SLP097 T02110206 10278
                 20211 403830200 50001 $ =
2018-07-19 23:53 METAR KFOE 200453Z AUTO 00000KT 10SM CLR 22/21 A2986 RMK AO2 SLP099 T02170206 =
2018-07-19 22:53 METAR KFOE 200353Z AUTO 21004KT 10SM CLR 22/22 A2987 RMK AO2 SLP101 T02220217 =
2018-07-19 21:53 METAR KFOE 200253Z 13004KT 10SM CLR 23/22 A2985 RMK AO2 SLP097 T02280217 53010 =
2018-07-19 20:53 METAR KFOE 200153Z 00000KT 10SM CLR 25/22 A2985 RMK AO2 SLP094 T02500222 =
2018-07-19 19:53 METAR KFOE 200053Z 16005KT 10SM CLR 27/23 A2982 RMK AO2 SLP087 T02720228 =
2018-07-19 18:53 METAR KFOE 192353Z 20004KT 10SM CLR 28/23 A2982 RMK AO2 SLP087 60027 T02780228
                 10383 20200 55014 =
2018-07-19 17:53 METAR KFOE 192253Z 19004KT 10SM CLR 27/23 A2982 RMK AO2 LTG DSNT S AND SW SLP085
                 T02720233 =
2018-07-19 16:53 METAR KFOE 192153Z 21003KT 10SM CLR 28/22 A2982 RMK AO2 RAE01 TSE03 SLP085 P0000
                 T02830217 =
2018-07-19 16:20 METAR KFOE 192120Z 32005KT 10SM CLR 24/22 A2981 RMK AO2 LTG DSNT SE AND S RAE01
                 TSE03 P0000 T02390217 =
2018-07-19 16:09 METAR KFOE 192109Z 02004KT 10SM VCTS FEW090 FEW110 23/21 A2982 RMK AO2 LTG DSNT
                 E-S RAE01 TSE03 PRESFR P0000 T02280211 =
2018-07-19 16:00 METAR KFOE 192100Z 29007KT 10SM -TSRA FEW031 SCT090 SCT110 23/20 A2984 RMK AO2
                 LTG DSNT NE-S PRESFR P0000 T02280200 =
2018-07-19 15:53 METAR KFOE 192053Z 28009KT 2SM -TSRA OVC008 23/19 A2986 RMK AO2 PK WND
                 32068/2030 LTG DSNT NE-S RAB24 TSE12B24E31 PRESFR SLP103 P0027 60027 T02280194
                 53015 =
2018-07-19 15:24 METAR KFOE 192024Z 29046G64KT 2SM -TSRA SQ OVC008 32/22 A2991 RMK AO2 PK WND
                 30064/2024 LTG DSNT SW-N RAB24 TSE12B24 PRESRR P0000 T03170217 =
2018-07-19 15:18 METAR KFOE 192018Z 30014KT 10SM VCTS SCT100 33/22 A2988 RMK AO2 LTG DSNT SW-N
                 TSE12 PRESRR T03330222 =
2018-07-19 14:53 METAR KFOE 191953Z AUTO 31009KT 10SM CLR 33/22 A2982 RMK AO2 LTG DSNT ALQDS
                 SLP086 T03330217 =
2018-07-19 13:53 METAR KFOE 191853Z 29011G19KT 260V330 10SM CLR 38/21 A2983 RMK AO2 SLP084
                 T03830211 =
2018-07-19 12:53 METAR KFOE 191753Z 27009G16KT 10SM CLR 37/21 A2982 RMK AO2 SLP083 T03720211
                 10378 20239 58010 =
2018-07-19 11:53 METAR KFOE 191653Z 24011KT 10SM CLR 36/21 A2984 RMK AO2 SLP089 T03610206 =

Support USWX by starting your Amazon purchase here.